Map

Track Data

SID SEASON NUMBER BASIN SUBBASIN NAME ISO_TIME NATURE LAT LON WMO_WIND WMO_PRES WMO_AGENCY TRACK_TYPE DIST2LAND LANDFALL IFLAG USA_AGENCY USA_ATCF_ID USA_LAT USA_LON USA_RECORD USA_STATUS USA_WIND USA_PRES USA_SSHS USA_R34_NE USA_R34_SE USA_R34_SW USA_R34_NW USA_R50_NE USA_R50_SE USA_R50_SW USA_R50_NW USA_R64_NE USA_R64_SE USA_R64_SW USA_R64_NW USA_POCI USA_ROCI USA_RMW USA_EYE TOKYO_LAT TOKYO_LON TOKYO_GRADE TOKYO_WIND TOKYO_PRES TOKYO_R50_DIR TOKYO_R50_LONG TOKYO_R50_SHORT TOKYO_R30_DIR TOKYO_R30_LONG TOKYO_R30_SHORT TOKYO_LAND CMA_LAT CMA_LON CMA_CAT CMA_WIND CMA_PRES HKO_LAT HKO_LON HKO_CAT HKO_WIND HKO_PRES NEWDELHI_LAT NEWDELHI_LON NEWDELHI_GRADE NEWDELHI_WIND NEWDELHI_PRES NEWDELHI_CI NEWDELHI_DP NEWDELHI_POCI REUNION_LAT REUNION_LON REUNION_TYPE REUNION_WIND REUNION_PRES REUNION_TNUM REUNION_CI REUNION_RMW REUNION_R34_NE REUNION_R34_SE REUNION_R34_SW REUNION_R34_NW REUNION_R50_NE REUNION_R50_SE REUNION_R50_SW REUNION_R50_NW REUNION_R64_NE REUNION_R64_SE REUNION_R64_SW REUNION_R64_NW BOM_LAT BOM_LON BOM_TYPE BOM_WIND BOM_PRES BOM_TNUM BOM_CI BOM_RMW BOM_R34_NE BOM_R34_SE BOM_R34_SW BOM_R34_NW BOM_R50_NE BOM_R50_SE BOM_R50_SW BOM_R50_NW BOM_R64_NE BOM_R64_SE BOM_R64_SW BOM_R64_NW BOM_ROCI BOM_POCI BOM_EYE BOM_POS_METHOD BOM_PRES_METHOD NADI_LAT NADI_LON NADI_CAT NADI_WIND NADI_PRES WELLINGTON_LAT WELLINGTON_LON WELLINGTON_WIND WELLINGTON_PRES DS824_LAT DS824_LON DS824_STAGE DS824_WIND DS824_PRES TD9636_LAT TD9636_LON TD9636_STAGE TD9636_WIND TD9636_PRES TD9635_LAT TD9635_LON TD9635_WIND TD9635_PRES TD9635_ROCI NEUMANN_LAT NEUMANN_LON NEUMANN_CLASS NEUMANN_WIND NEUMANN_PRES MLC_LAT MLC_LON MLC_CLASS MLC_WIND MLC_PRES USA_GUST BOM_GUST BOM_GUST_PER REUNION_GUST REUNION_GUST_PER USA_SEAHGT USA_SEARAD_NE USA_SEARAD_SE USA_SEARAD_SW USA_SEARAD_NW STORM_SPEED STORM_DIR
1909195N12300 1909 34 NA CS NOT_NAMED 1909-07-13 12:00:00 TS 12.3000 -60.5000 30 hurdat_atl main 187 179 O_____________ hurdat_atl AL041909 12.3000 -60.5000 TD 30 -1 15 269
1909195N12300 1909 34 NA CS NOT_NAMED 1909-07-13 15:00:00 TS 12.2929 -61.2475 main 179 179 P_____________ AL041909 12.2929 -61.2475 TD 30 -1 15 270
1909195N12300 1909 34 NA CS NOT_NAMED 1909-07-13 18:00:00 TS 12.3000 -62.0000 30 hurdat_atl main 180 179 O_____________ hurdat_atl AL041909 12.3000 -62.0000 TD 30 -1 15 272
1909195N12300 1909 34 NA CS NOT_NAMED 1909-07-13 21:00:00 TS 12.3349 -62.7575 main 179 179 P_____________ AL041909 12.3349 -62.7575 TD 30 -1 15 274
1909195N12300 1909 34 NA CS NOT_NAMED 1909-07-14 00:00:00 TS 12.4000 -63.5000 30 hurdat_atl main 195 195 O_____________ hurdat_atl AL041909 12.4000 -63.5000 TD 30 -1 14 276
1909195N12300 1909 34 NA CS NOT_NAMED 1909-07-14 03:00:00 TS 12.4773 -64.2151 main 212 212 P_____________ AL041909 12.4773 -64.2151 TD 30 -1 14 278
1909195N12300 1909 34 NA CS NOT_NAMED 1909-07-14 06:00:00 TS 12.6000 -64.9000 30 hurdat_atl main 236 236 O_____________ hurdat_atl AL041909 12.6000 -64.9000 TD 30 -1 14 283
1909195N12300 1909 34 NA CS NOT_NAMED 1909-07-14 09:00:00 TS 12.7773 -65.5650 main 250 247 P_____________ AL041909 12.7773 -65.5650 TD 30 -1 13 288
1909195N12300 1909 34 NA CS NOT_NAMED 1909-07-14 12:00:00 TS 13.0000 -66.2000 30 hurdat_atl main 268 268 O_____________ hurdat_atl AL041909 13.0000 -66.2000 TD 30 -1 13 291
1909195N12300 1909 34 NA CS NOT_NAMED 1909-07-14 15:00:00 TS 13.2423 -66.8076 main 283 273 P_____________ AL041909 13.2423 -66.8076 TD 30 -1 13 293
1909195N12300 1909 34 NA CS NOT_NAMED 1909-07-14 18:00:00 TS 13.5000 -67.4000 30 hurdat_atl main 278 271 O_____________ hurdat_atl AL041909 13.5000 -67.4000 TD 30 -1 13 294
1909195N12300 1909 34 NA CS NOT_NAMED 1909-07-14 21:00:00 TS 13.7499 -68.0001 main 271 252 P_____________ AL041909 13.7499 -68.0001 TD 30 -1 13 293
1909195N12300 1909 34 NA CS NOT_NAMED 1909-07-15 00:00:00 TS 14.0000 -68.6000 30 hurdat_atl main 255 247 O_____________ hurdat_atl AL041909 14.0000 -68.6000 TD 30 -1 13 294
1909195N12300 1909 34 NA CS NOT_NAMED 1909-07-15 03:00:00 TS 14.2573 -69.2001 main 257 252 P_____________ AL041909 14.2573 -69.2001 TD 30 -1 13 293
1909195N12300 1909 34 NA CS NOT_NAMED 1909-07-15 06:00:00 TS 14.5000 -69.8000 30 hurdat_atl main 268 268 O_____________ hurdat_atl AL041909 14.5000 -69.8000 TD 30 -1 13 291
1909195N12300 1909 34 NA CS NOT_NAMED 1909-07-15 09:00:00 TS 14.7148 -70.4001 main 283 279 P_____________ AL041909 14.7148 -70.4001 TD 30 -1 12 289
1909195N12300 1909 34 NA CS NOT_NAMED 1909-07-15 12:00:00 TS 14.9000 -71.0000 30 hurdat_atl main 285 281 O_____________ hurdat_atl AL041909 14.9000 -71.0000 TD 30 -1 12 286
1909195N12300 1909 34 NA CS NOT_NAMED 1909-07-15 15:00:00 TS 15.0574 -71.6076 main 280 276 P_____________ AL041909 15.0574 -71.6076 TD 30 -1 12 285
1909195N12300 1909 34 NA CS NOT_NAMED 1909-07-15 18:00:00 TS 15.2000 -72.2000 30 hurdat_atl main 281 278 O_____________ hurdat_atl AL041909 15.2000 -72.2000 TD 30 -1 11 285
1909195N12300 1909 34 NA CS NOT_NAMED 1909-07-15 21:00:00 TS 15.3498 -72.7576 main 297 284 P_____________ AL041909 15.3498 -72.7576 TD 30 -1 11 286
1909195N12300 1909 34 NA CS NOT_NAMED 1909-07-16 00:00:00 TS 15.5000 -73.3000 30 hurdat_atl main 284 268 O_____________ hurdat_atl AL041909 15.5000 -73.3000 TD 30 -1 11 286
1909195N12300 1909 34 NA CS NOT_NAMED 1909-07-16 03:00:00 TS 15.6574 -73.8500 main 257 248 P_____________ AL041909 15.6574 -73.8500 TD 30 -1 11 286
1909195N12300 1909 34 NA CS NOT_NAMED 1909-07-16 06:00:00 TS 15.8000 -74.4000 30 hurdat_atl main 251 246 O_____________ hurdat_atl AL041909 15.8000 -74.4000 TD 30 -1 11 283
1909195N12300 1909 34 NA CS NOT_NAMED 1909-07-16 09:00:00 TS 15.9073 -74.9426 main 257 225 P_____________ AL041909 15.9073 -74.9426 TD 30 -1 11 281
1909195N12300 1909 34 NA CS NOT_NAMED 1909-07-16 12:00:00 TS 16.0000 -75.5000 30 hurdat_atl main 225 201 O_____________ hurdat_atl AL041909 16.0000 -75.5000 TD 30 -1 11 280
1909195N12300 1909 34 NA CS NOT_NAMED 1909-07-16 15:00:00 TS 16.1000 -76.1000 main 201 176 P_____________ AL041909 16.1000 -76.1000 TD 30 -1 12 280
1909195N12300 1909 34 NA CS NOT_NAMED 1909-07-16 18:00:00 TS 16.2000 -76.7000 30 hurdat_atl main 176 156 O_____________ hurdat_atl AL041909 16.2000 -76.7000 TD 30 -1 11 280
1909195N12300 1909 34 NA CS NOT_NAMED 1909-07-16 21:00:00 TS 16.2923 -77.2576 main 157 151 P_____________ AL041909 16.2923 -77.2576 TD 32 -1 11 281
1909195N12300 1909 34 NA CS NOT_NAMED 1909-07-17 00:00:00 TS 16.4000 -77.8000 35 hurdat_atl main 158 158 O_____________ hurdat_atl AL041909 16.4000 -77.8000 TS 35 0 11 283
1909195N12300 1909 34 NA CS NOT_NAMED 1909-07-17 03:00:00 TS 16.5274 -78.3502 main 173 163 P_____________ AL041909 16.5274 -78.3502 TS 37 0 11 286
1909195N12300 1909 34 NA CS NOT_NAMED 1909-07-17 06:00:00 TS 16.7000 -78.9000 40 hurdat_atl main 176 173 O_____________ hurdat_atl AL041909 16.7000 -78.9000 TS 40 0 11 290
1909195N12300 1909 34 NA CS NOT_NAMED 1909-07-17 09:00:00 TS 16.9124 -79.4577 main 186 177 P_____________ AL041909 16.9124 -79.4577 TS 42 0 12 295
1909195N12300 1909 34 NA CS NOT_NAMED 1909-07-17 12:00:00 TS 17.2000 -80.0000 45 hurdat_atl main 203 203 O_____________ hurdat_atl AL041909 17.2000 -80.0000 TS 45 0 12 303
1909195N12300 1909 34 NA CS NOT_NAMED 1909-07-17 15:00:00 TS 17.5623 -80.5077 main 232 232 P_____________ AL041909 17.5623 -80.5077 TS 47 0 12 310
1909195N12300 1909 34 NA CS NOT_NAMED 1909-07-17 18:00:00 TS 18.0000 -81.0000 50 hurdat_atl main 275 275 O_____________ hurdat_atl AL041909 18.0000 -81.0000 TS 50 0 13 314
1909195N12300 1909 34 NA CS NOT_NAMED 1909-07-17 21:00:00 TS 18.4849 -81.5002 main 328 281 P_____________ AL041909 18.4849 -81.5002 TS 52 0 14 317
1909195N12300 1909 34 NA CS NOT_NAMED 1909-07-18 00:00:00 TS 19.0000 -82.0000 55 hurdat_atl main 281 214 O_____________ hurdat_atl AL041909 19.0000 -82.0000 TS 55 0 14 317
1909195N12300 1909 34 NA CS NOT_NAMED 1909-07-18 03:00:00 TS 19.4999 -82.5003 main 214 157 P_____________ AL041909 19.4999 -82.5003 TS 57 0 14 317
1909195N12300 1909 34 NA CS NOT_NAMED 1909-07-18 06:00:00 TS 20.0000 -83.0000 60 hurdat_atl main 157 123 O_____________ hurdat_atl AL041909 20.0000 -83.0000 TS 60 0 14 317
1909195N12300 1909 34 NA CS NOT_NAMED 1909-07-18 09:00:00 TS 20.4999 -83.5003 main 123 100 P_____________ AL041909 20.4999 -83.5003 TS 60 0 14 317
1909195N12300 1909 34 NA CS NOT_NAMED 1909-07-18 12:00:00 TS 21.0000 -84.0000 60 hurdat_atl main 100 33 O_____________ hurdat_atl AL041909 21.0000 -84.0000 TS 60 0 14 317
1909195N12300 1909 34 NA CS NOT_NAMED 1909-07-18 15:00:00 TS 21.4999 -84.5078 main 33 0 P_____________ AL041909 21.4999 -84.5078 TS 62 0 14 317
1909195N12300 1909 34 NA GM NOT_NAMED 1909-07-18 18:00:00 TS 22.0000 -85.0000 65 hurdat_atl main 11 11 O_____________ hurdat_atl AL041909 22.0000 -85.0000 HU 65 1 13 318
1909195N12300 1909 34 NA GM NOT_NAMED 1909-07-18 21:00:00 TS 22.4999 -85.4653 main 84 84 P_____________ AL041909 22.4999 -85.4653 HU 67 1 13 320
1909195N12300 1909 34 NA GM NOT_NAMED 1909-07-19 00:00:00 TS 23.0000 -85.9000 70 hurdat_atl main 153 153 O_____________ hurdat_atl AL041909 23.0000 -85.9000 HU 70 1 13 322
1909195N12300 1909 34 NA GM NOT_NAMED 1909-07-19 03:00:00 TS 23.4998 -86.3079 main 223 223 P_____________ AL041909 23.4998 -86.3079 HU 70 1 12 324
1909195N12300 1909 34 NA GM NOT_NAMED 1909-07-19 06:00:00 TS 24.0000 -86.7000 70 hurdat_atl main 281 281 O_____________ hurdat_atl AL041909 24.0000 -86.7000 HU 70 1 13 325
1909195N12300 1909 34 NA GM NOT_NAMED 1909-07-19 09:00:00 TS 24.5299 -87.1000 main 335 335 P_____________ AL041909 24.5299 -87.1000 HU 70 1 12 324
1909195N12300 1909 34 NA GM NOT_NAMED 1909-07-19 12:00:00 TS 25.0000 -87.5000 70 hurdat_atl main 391 391 O_____________ hurdat_atl AL041909 25.0000 -87.5000 HU 70 1 11 318
1909195N12300 1909 34 NA GM NOT_NAMED 1909-07-19 15:00:00 TS 25.3375 -87.9153 main 424 387 P_____________ AL041909 25.3375 -87.9153 HU 70 1 9 310
1909195N12300 1909 34 NA GM NOT_NAMED 1909-07-19 18:00:00 TS 25.6000 -88.3000 70 hurdat_atl main 387 360 O_____________ hurdat_atl AL041909 25.6000 -88.3000 HU 70 1 8 310
1909195N12300 1909 34 NA GM NOT_NAMED 1909-07-19 21:00:00 TS 25.8572 -88.6004 main 349 324 P_____________ AL041909 25.8572 -88.6004 HU 70 1 7 313
1909195N12300 1909 34 NA GM NOT_NAMED 1909-07-20 00:00:00 TS 26.1000 -88.9000 70 hurdat_atl main 324 301 O_____________ hurdat_atl AL041909 26.1000 -88.9000 HU 70 1 8 309
1909195N12300 1909 34 NA GM NOT_NAMED 1909-07-20 03:00:00 TS 26.3574 -89.2775 main 290 272 P_____________ AL041909 26.3574 -89.2775 HU 70 1 9 305
1909195N12300 1909 34 NA GM NOT_NAMED 1909-07-20 06:00:00 TS 26.6000 -89.7000 70 hurdat_atl main 274 256 O_____________ hurdat_atl AL041909 26.6000 -89.7000 HU 70 1 9 300
1909195N12300 1909 34 NA GM NOT_NAMED 1909-07-20 09:00:00 TS 26.8074 -90.1427 main 256 234 P_____________ AL041909 26.8074 -90.1427 HU 70 1 9 296
1909195N12300 1909 34 NA GM NOT_NAMED 1909-07-20 12:00:00 TS 27.0000 -90.6000 70 hurdat_atl main 234 212 O_____________ hurdat_atl AL041909 27.0000 -90.6000 HU 70 1 9 296
1909195N12300 1909 34 NA GM NOT_NAMED 1909-07-20 15:00:00 TS 27.1998 -91.0427 main 212 196 P_____________ AL041909 27.1998 -91.0427 HU 70 1 9 297
1909195N12300 1909 34 NA GM NOT_NAMED 1909-07-20 18:00:00 TS 27.4000 -91.5000 70 985 hurdat_atl main 198 191 O_____________ hurdat_atl AL041909 27.4000 -91.5000 HU 70 985 1 9 295
1909195N12300 1909 34 NA GM NOT_NAMED 1909-07-20 21:00:00 TS 27.5999 -91.9926 main 199 190 P_____________ AL041909 27.5999 -91.9926 HU 75 1 10 294
1909195N12300 1909 34 NA GM NOT_NAMED 1909-07-21 00:00:00 TS 27.8000 -92.5000 80 hurdat_atl main 190 177 O_____________ hurdat_atl AL041909 27.8000 -92.5000 HU 80 1 10 294
1909195N12300 1909 34 NA GM NOT_NAMED 1909-07-21 03:00:00 TS 27.9998 -93.0002 main 180 169 P_____________ AL041909 27.9998 -93.0002 HU 85 2 10 294
1909195N12300 1909 34 NA GM NOT_NAMED 1909-07-21 06:00:00 TS 28.2000 -93.5000 90 hurdat_atl main 169 133 O_____________ hurdat_atl AL041909 28.2000 -93.5000 HU 90 2 10 295
1909195N12300 1909 34 NA GM NOT_NAMED 1909-07-21 09:00:00 TS 28.4032 -94.0034 main 133 81 P_____________ AL041909 28.4032 -94.0034 HU 95 2 10 294
1909195N12300 1909 34 NA GM NOT_NAMED 1909-07-21 12:00:00 TS 28.6000 -94.5000 100 hurdat_atl main 81 44 O_____________ hurdat_atl AL041909 28.6000 -94.5000 HU 100 3 9 293
1909195N12300 1909 34 NA GM NOT_NAMED 1909-07-21 15:00:00 TS 28.7530 -94.9534 main 29 9 P_____________ AL041909 28.7530 -94.9534 HU 100 3 9 293
1909195N12300 1909 34 NA GM NOT_NAMED 1909-07-21 17:00:00 TS 28.9000 -95.3000 100 hurdat_atl main 9 0 O_____________ hurdat_atl AL041909 28.9000 -95.3000 L HU 100 3 11 297
1909195N12300 1909 34 NA NA NOT_NAMED 1909-07-21 18:00:00 TS 29.0000 -95.5000 90 959 hurdat_atl main 0 0 O_____________ hurdat_atl AL041909 29.0000 -95.5000 HU 90 959 2 10 295
1909195N12300 1909 34 NA NA NOT_NAMED 1909-07-21 21:00:00 TS 29.1902 -96.0214 main 0 0 P_____________ AL041909 29.1902 -96.0214 HU 77 1 9 289
1909195N12300 1909 34 NA NA NOT_NAMED 1909-07-22 00:00:00 TS 29.3000 -96.5000 65 hurdat_atl main 0 0 O_____________ hurdat_atl AL041909 29.3000 -96.5000 HU 65 1 9 285
1909195N12300 1909 34 NA NA NOT_NAMED 1909-07-22 03:00:00 TS 29.4273 -97.0356 main 0 0 P_____________ AL041909 29.4273 -97.0356 HU 47 0 10 287
1909195N12300 1909 34 NA NA NOT_NAMED 1909-07-22 06:00:00 TS 29.6000 -97.6000 30 hurdat_atl main 0 0 O_____________ hurdat_atl AL041909 29.6000 -97.6000 TD 30 -1 11 294
1909195N12300 1909 34 NA NA NOT_NAMED 1909-07-22 09:00:00 TS 29.8706 -98.1914 main 0 0 P_____________ AL041909 29.8706 -98.1914 TD 27 -1 12 300
1909195N12300 1909 34 NA NA NOT_NAMED 1909-07-22 12:00:00 TS 30.2000 -98.8000 25 hurdat_atl main 0 O_____________ hurdat_atl AL041909 30.2000 -98.8000 TD 25 -1 12 302

About IBTrACS Database

This database is a web-friendly format of International Best Track Archive for Climate Stewardship (IBTrACS), a global best track data archive curated by NOAA dating back to 1842.

Updated: 2021-10-21